Time;durP1;ratioP1;P1;durP2;ratioP2;P2;SDS_P1;SDS_P2;PMS_P1;PMS_P2;Temp;Humidity;BMP_temperature;BMP_pressure;BME280_temperature;BME280_humidity;BME280_pressure;Samples;Min_cycle;Max_cycle;Signal;HPM_P1;HPM_P2
2022/08/23 03:58:40;;;;;;;49.47;34.42;;;;;;;26.09;42.30;100968.66;5075352;27;1459359;-79
2022/08/23 04:01:08;;;;;;;46.28;34.58;;;;;;;26.18;41.50;100948.63;5095328;28;20135;-79
2022/08/23 04:03:35;;;;;;;47.83;34.63;;;;;;;26.31;40.91;100944.44;5098250;28;20051;-78
2022/08/23 04:06:04;;;;;;;42.63;33.25;;;;;;;26.73;40.75;100972.91;5100147;28;20055;-79
2022/08/23 04:08:31;;;;;;;44.45;32.55;;;;;;;26.91;40.17;100955.13;5079069;28;20048;-79
2022/08/23 04:11:02;;;;;;;46.80;32.72;;;;;;;26.92;40.06;100953.28;5092341;28;20503;-81
2022/08/23 04:13:29;;;;;;;48.83;32.33;;;;;;;27.10;40.04;100973.00;5074899;28;20048;-76
2022/08/23 04:16:02;;;;;;;44.92;33.00;;;;;;;27.22;39.77;100967.06;5091972;28;20047;-77
2022/08/23 04:18:31;;;;;;;45.08;32.53;;;;;;;27.30;39.58;100982.81;5075096;28;20052;-78
2022/08/23 04:21:03;;;;;;;46.28;32.53;;;;;;;27.16;39.65;100970.00;5089613;28;20052;-77
2022/08/23 04:23:30;;;;;;;51.88;34.22;;;;;;;27.01;40.14;100985.03;5108574;28;20063;-77
2022/08/23 04:25:58;;;;;;;45.60;32.38;;;;;;;26.81;40.35;100977.94;5091876;28;20051;-76
2022/08/23 04:28:29;;;;;;;42.75;31.08;;;;;;;27.07;40.08;100978.50;5091448;28;20110;-76
2022/08/23 04:30:59;;;;;;;43.42;32.03;;;;;;;26.94;39.99;100965.69;5108645;28;20056;-79
2022/08/23 04:33:30;;;;;;;42.30;32.00;;;;;;;26.86;40.35;100969.66;5091424;28;20056;-80
2022/08/23 04:36:00;;;;;;;43.95;32.15;;;;;;;26.93;40.44;100990.75;5109407;28;20574;-79
2022/08/23 04:38:27;;;;;;;49.30;35.30;;;;;;;27.01;40.39;100973.44;5091415;28;20044;-79
2022/08/23 04:43:45;;;;;;;45.63;29.90;;;;;;;27.34;39.73;100992.41;5091514;28;20522;-79
2022/08/23 04:46:15;;;;;;;43.13;30.00;;;;;;;27.30;39.78;100970.25;5091427;28;20101;-79
2022/08/23 04:48:45;;;;;;;43.78;29.55;;;;;;;27.32;40.09;100968.38;5074703;28;20051;-79
2022/08/23 04:51:14;;;;;;;37.65;26.10;;;;;;;27.26;40.06;100965.97;5091425;28;20468;-79
2022/08/23 04:53:42;;;;;;;38.60;26.00;;;;;;;27.18;40.21;100978.84;5091183;28;20054;-78
2022/08/23 04:56:47;;;;;;;38.03;26.02;;;;;;;26.98;40.56;100985.19;5088962;28;20052;-78
2022/08/23 04:59:20;;;;;;;35.33;24.88;;;;;;;27.05;40.33;100989.28;5091464;28;20075;-78
2022/08/23 05:01:49;;;;;;;34.35;24.70;;;;;;;27.26;40.03;100982.06;5091108;28;20517;-78
2022/08/23 05:04:16;;;;;;;33.90;24.75;;;;;;;27.31;39.83;100973.81;5074440;28;20072;-78
2022/08/23 05:06:45;;;;;;;34.03;24.38;;;;;;;27.44;39.37;100974.06;5090753;28;20051;-77
2022/08/23 05:09:12;;;;;;;36.53;24.65;;;;;;;27.77;39.28;100991.16;5082537;28;20083;-78
2022/08/23 05:11:46;;;;;;;33.42;23.42;;;;;;;27.98;38.50;100985.66;5077545;28;20161;-79
2022/08/23 05:14:13;;;;;;;37.75;23.88;;;;;;;28.20;38.15;100988.13;5077329;28;20047;-79
2022/08/23 05:16:41;;;;;;;39.72;24.50;;;;;;;28.18;37.71;100971.22;5076299;28;20059;-78
2022/08/23 05:19:09;;;;;;;35.70;24.55;;;;;;;28.37;37.57;100988.09;5077520;28;20048;-80
2022/08/23 05:21:42;;;;;;;34.53;24.85;;;;;;;28.48;37.38;100992.00;5063552;28;20052;-79
2022/08/23 05:24:10;;;;;;;31.15;23.67;;;;;;;28.44;37.58;100985.06;5077352;28;20056;-80
2022/08/23 05:26:41;;;;;;;29.67;22.60;;;;;;;28.39;37.58;100985.31;5077270;28;20139;-79
2022/08/23 05:29:09;;;;;;;32.05;23.48;;;;;;;28.46;37.47;100972.41;5077276;28;20090;-80
2022/08/23 05:31:42;;;;;;;35.88;22.67;;;;;;;28.48;36.99;100992.00;5077063;28;20048;-79
2022/08/23 05:34:13;;;;;;;31.52;23.15;;;;;;;28.54;37.35;101002.47;5077259;28;20109;-77
2022/08/23 05:36:48;;;;;;;34.67;22.58;;;;;;;28.56;36.55;100958.44;5061313;28;20133;-78
2022/08/23 05:39:35;;;;;;;34.95;23.15;;;;;;;28.58;36.93;100994.16;5076944;28;20090;-78
2022/08/23 05:42:07;;;;;;;36.17;22.60;;;;;;;28.76;36.74;100995.00;5076937;28;20135;-79
2022/08/23 05:44:36;;;;;;;32.92;22.58;;;;;;;28.73;36.63;100987.06;5095066;28;20044;-78
2022/08/23 05:47:07;;;;;;;38.22;24.13;;;;;;;28.62;36.63;100961.75;5076310;28;20056;-80
2022/08/23 05:49:51;;;;;;;32.97;22.73;;;;;;;28.59;36.46;100968.16;5075339;28;20051;-80
2022/08/23 05:52:20;;;;;;;33.10;22.50;;;;;;;28.64;36.83;100975.97;5076330;28;20048;-79
2022/08/23 05:54:46;;;;;;;34.05;24.40;;;;;;;28.73;37.00;100991.59;5058683;28;20040;-79
2022/08/23 05:57:37;;;;;;;31.73;23.35;;;;;;;28.69;37.15;100992.72;5091236;28;20113;-78
2022/08/23 06:00:07;;;;;;;35.50;22.98;;;;;;;28.64;37.15;100968.78;5076930;28;20082;-78
2022/08/23 06:02:45;;;;;;;31.45;23.02;;;;;;;28.66;37.17;101004.50;5094625;28;20492;-80
2022/08/23 06:05:13;;;;;;;37.03;24.33;;;;;;;28.69;37.20;101008.84;5076624;28;20508;-78
2022/08/23 06:07:42;;;;;;;;;;;;;;;28.60;37.69;101002.13;5076749;28;20095;-79
2022/08/23 06:10:09;;;;;;;34.65;23.23;;;;;;;28.68;36.90;100970.34;5076488;28;19956;-78
2022/08/23 06:12:47;;;;;;;33.30;22.45;;;;;;;28.99;36.69;101004.44;5076236;28;20174;-79
2022/08/23 06:15:14;;;;;;;32.28;22.95;;;;;;;28.74;37.19;100972.69;5094053;28;20436;-77
2022/08/23 06:17:41;;;;;;;32.05;22.55;;;;;;;28.82;37.11;101014.41;5076233;28;20059;-79
2022/08/23 06:20:09;;;;;;;33.17;24.83;;;;;;;28.59;37.08;100979.78;5075599;28;20040;-79
2022/08/23 06:22:54;;;;;;;35.97;23.73;;;;;;;28.82;37.34;101007.22;5076166;28;20078;-77
2022/08/23 06:25:21;;;;;;;35.78;23.08;;;;;;;29.04;36.97;101004.22;5093306;28;20079;-78
2022/08/23 06:27:58;;;;;;;36.88;24.27;;;;;;;28.91;36.92;100979.84;5076255;28;20052;-77
2022/08/23 06:30:26;;;;;;;35.25;24.00;;;;;;;29.06;37.23;101015.75;5096256;28;20059;-78
2022/08/23 06:33:14;;;;;;;39.80;23.75;;;;;;;29.11;36.90;101013.72;5062154;28;20522;-78
2022/08/23 06:36:13;;;;;;;36.47;22.15;;;;;;;29.30;36.37;101018.91;5059739;28;20054;-77
2022/08/23 06:39:02;;;;;;;36.85;23.33;;;;;;;29.57;35.84;101015.59;5076256;28;20138;-79
2022/08/23 06:41:50;;;;;;;32.30;22.20;;;;;;;29.71;36.02;101001.38;5062137;28;20048;-77
2022/08/23 06:44:26;;;;;;;30.67;21.40;;;;;;;29.82;35.51;100998.03;5076126;28;20052;-78
2022/08/23 06:47:12;;;;;;;30.27;20.65;;;;;;;30.02;35.19;101019.25;5075431;28;20538;-79
2022/08/23 06:49:40;;;;;;;37.88;21.77;;;;;;;30.07;34.79;101009.06;5094055;28;20086;-80
2022/08/23 06:52:30;;;;;;;34.60;21.50;;;;;;;30.29;34.75;101015.91;5068382;28;20048;-78
2022/08/23 06:55:19;;;;;;;28.48;18.27;;;;;;;30.20;34.32;101022.66;5065815;28;20397;-79
2022/08/23 06:58:03;;;;;;;28.13;18.50;;;;;;;30.15;34.38;101014.84;5065562;28;20060;-79
2022/08/23 07:00:50;;;;;;;28.23;16.88;;;;;;;30.28;34.10;101019.50;5080521;28;20079;-79
2022/08/23 07:03:44;;;;;;;28.48;18.02;;;;;;;30.16;33.83;101013.91;5066834;28;20048;-79
2022/08/23 07:06:33;;;;;;;26.20;17.00;;;;;;;30.23;34.33;101017.09;5082326;28;20074;-78
2022/08/23 07:09:03;;;;;;;26.75;17.58;;;;;;;30.15;34.18;100996.00;5081082;28;20496;-80
2022/08/23 07:11:31;;;;;;;28.27;18.10;;;;;;;30.31;33.93;101014.84;5082292;28;20060;-78
2022/08/23 07:14:00;;;;;;;25.25;18.17;;;;;;;30.21;34.02;101001.00;5084881;28;20123;-78
2022/08/23 07:16:43;;;;;;;26.77;18.10;;;;;;;30.27;34.29;101020.47;5068461;28;20048;-79
2022/08/23 07:19:11;;;;;;;27.85;18.10;;;;;;;30.39;34.19;101014.34;5055692;28;20086;-78
2022/08/23 07:21:40;;;;;;;24.33;18.15;;;;;;;30.53;34.08;101030.56;5055037;28;20063;-77
2022/08/23 07:24:08;;;;;;;24.85;16.85;;;;;;;30.55;33.39;101030.47;5057297;28;20052;-78
2022/08/23 07:26:38;;;;;;;24.77;16.50;;;;;;;30.57;33.11;101031.25;5055717;28;20056;-79
2022/08/23 07:29:08;;;;;;;23.33;16.58;;;;;;;30.60;32.99;101031.88;5054609;28;20083;-79
2022/08/23 07:31:40;;;;;;;25.77;15.93;;;;;;;30.37;33.31;101003.69;5054774;28;20056;-79
2022/08/23 07:34:08;;;;;;;27.38;16.77;;;;;;;30.62;33.20;101024.56;5054806;28;20106;-79
2022/08/23 07:36:40;;;;;;;25.52;17.30;;;;;;;30.61;33.08;100998.59;5054473;28;20519;-78
2022/08/23 07:39:09;;;;;;;23.55;15.63;;;;;;;30.71;32.50;101019.56;5070241;28;20063;-78
2022/08/23 07:41:37;;;;;;;24.67;16.43;;;;;;;30.77;32.81;101038.06;5087314;28;20048;-79
2022/08/23 07:44:08;;;;;;;27.80;16.70;;;;;;;30.65;33.25;101034.28;5059765;28;20336;-77
2022/08/23 07:46:39;;;;;;;25.30;16.02;;;;;;;30.70;33.42;101034.91;5060812;28;20057;-78
2022/08/23 07:49:10;;;;;;;28.67;17.33;;;;;;;30.90;33.36;101038.19;5037877;28;20074;-78
2022/08/23 07:51:45;;;;;;;26.85;16.88;;;;;;;30.85;32.83;100994.41;5065998;28;20052;-80
2022/08/23 07:54:14;;;;;;;24.73;16.63;;;;;;;31.15;32.32;101015.91;5063554;28;20136;-80
2022/08/23 07:57:04;;;;;;;27.08;16.67;;;;;;;31.40;32.36;101025.97;5070030;28;20076;-80
2022/08/23 07:59:52;;;;;;;21.70;16.03;;;;;;;31.52;32.20;101021.63;5065124;28;20048;-79
2022/08/23 08:02:39;;;;;;;18.42;14.23;;;;;;;31.73;31.74;101012.09;5086262;28;20063;-79
2022/08/23 08:05:14;;;;;;;24.42;14.70;;;;;;;31.88;31.33;101003.91;5065759;28;20044;-80
2022/08/23 08:07:48;;;;;;;21.35;13.18;;;;;;;31.95;30.91;101016.91;5050534;28;20389;-80
2022/08/23 08:10:19;;;;;;;16.25;12.50;;;;;;;32.07;30.71;101022.47;5061077;28;20048;-80
2022/08/23 08:12:50;;;;;;;17.33;12.57;;;;;;;32.06;30.70;101020.75;5076394;28;20056;-80
2022/08/23 08:15:19;;;;;;;18.00;13.27;;;;;;;31.97;30.88;101011.41;5054865;28;20076;-80
2022/08/23 08:17:53;;;;;;;18.83;13.60;;;;;;;31.90;30.93;100989.34;5054726;28;20147;-80
2022/08/23 08:20:21;;;;;;;19.10;12.88;;;;;;;32.12;30.88;101013.06;5072396;28;20064;-81
2022/08/23 08:22:48;;;;;;;17.85;13.48;;;;;;;31.95;30.46;100992.59;5075099;28;20044;-79
2022/08/23 08:25:44;;;;;;;20.92;11.63;;;;;;;31.96;30.79;101015.91;5078393;28;20060;-78
2022/08/23 08:28:14;;;;;;;16.02;11.05;;;;;;;31.94;30.54;100990.84;5058596;28;20054;-80
2022/08/23 08:30:42;;;;;;;16.85;11.52;;;;;;;31.89;30.62;101020.00;5067005;28;20052;-78
2022/08/23 08:33:09;;;;;;;17.48;11.93;;;;;;;32.00;30.48;101016.63;5082476;28;20047;-80
2022/08/23 08:35:37;;;;;;;18.58;11.32;;;;;;;32.03;30.19;101009.16;5093543;28;20055;-78
2022/08/23 08:38:05;;;;;;;19.48;12.07;;;;;;;31.96;30.42;101021.31;5058143;28;20044;-80
2022/08/23 08:40:39;;;;;;;15.57;11.55;;;;;;;31.79;30.54;101008.09;5074677;28;20056;-80
2022/08/23 08:43:29;;;;;;;20.15;12.25;;;;;;;31.62;30.68;101001.13;5074116;28;20507;-80
2022/08/23 08:46:12;;;;;;;20.13;11.25;;;;;;;31.60;30.69;101003.94;5078113;28;20052;-80
2022/08/23 08:48:44;;;;;;;19.15;11.63;;;;;;;31.53;30.92;100980.16;5078569;28;20051;-82
2022/08/23 08:51:40;;;;;;;20.05;11.88;;;;;;;31.65;30.86;100995.53;5078926;28;20055;-81
2022/08/23 08:54:12;;;;;;;16.45;11.07;;;;;;;31.66;30.37;101007.19;5098157;28;20079;-79
2022/08/23 08:56:47;;;;;;;16.92;10.73;;;;;;;31.68;30.28;101008.81;5080134;28;20056;-79
2022/08/23 08:59:32;;;;;;;17.80;10.52;;;;;;;31.71;30.18;101021.28;5067976;28;20055;-77
2022/08/23 09:02:01;;;;;;;17.10;10.65;;;;;;;31.73;30.39;101008.50;5097009;28;20113;-79
2022/08/23 09:04:36;;;;;;;20.70;11.27;;;;;;;31.60;30.18;101005.78;5079000;28;20063;-82
2022/08/23 09:07:28;;;;;;;15.18;11.27;;;;;;;31.61;30.23;101005.66;5079822;28;20138;-78
2022/08/23 09:10:14;;;;;;;17.48;11.20;;;;;;;31.46;30.48;101017.50;5086534;28;20052;-79
2022/08/23 09:13:22;;;;;;;17.08;10.45;;;;;;;31.46;29.86;101022.03;5085379;28;20086;-79
2022/08/23 09:16:17;;;;;;;13.18;10.07;;;;;;;31.40;29.72;101021.41;5086498;28;20056;-78
2022/08/23 09:18:45;;;;;;;15.25;9.82;;;;;;;31.38;29.67;101009.00;5101997;28;20074;-79
2022/08/23 09:21:14;;;;;;;14.25;10.35;;;;;;;31.46;29.20;101001.28;5095461;28;20059;-82
2022/08/23 09:23:46;;;;;;;13.95;9.95;;;;;;;31.58;29.26;101011.28;5060927;28;20052;-78
2022/08/23 09:26:37;;;;;;;18.55;10.68;;;;;;;31.65;29.26;101008.19;5077663;28;20071;-81
2022/08/23 09:29:21;;;;;;;17.63;9.93;;;;;;;31.73;28.80;101011.22;5077300;28;20497;-79
2022/08/23 09:31:52;;;;;;;19.35;10.63;;;;;;;31.70;28.58;101014.97;5095660;28;20523;-80
2022/08/23 09:34:41;;;;;;;16.40;10.02;;;;;;;31.58;28.28;101005.88;5077365;28;20054;-81
2022/08/23 09:37:23;;;;;;;17.38;9.73;;;;;;;31.66;28.22;101010.75;5061005;28;20902;-78
2022/08/23 09:40:16;;;;;;;16.63;10.70;;;;;;;31.74;28.10;100999.44;5060227;28;20044;-78
2022/08/23 09:42:46;;;;;;;15.73;9.48;;;;;;;31.80;27.35;101007.13;5081885;28;20052;-81
2022/08/23 09:45:30;;;;;;;15.00;9.88;;;;;;;31.75;27.41;100998.47;5076825;28;20101;-82
2022/08/23 09:48:05;;;;;;;13.55;9.20;;;;;;;31.81;27.29;100996.25;5076719;28;20044;-82
2022/08/23 09:50:46;;;;;;;14.90;9.77;;;;;;;31.94;27.37;101006.19;5060973;28;20086;-81
2022/08/23 09:53:28;;;;;;;18.95;9.05;;;;;;;31.93;27.30;101009.88;5076171;28;20097;-80
2022/08/23 09:56:10;;;;;;;18.85;9.40;;;;;;;31.99;26.63;100998.69;5076315;28;20101;-80
2022/08/23 09:58:41;;;;;;;16.80;10.40;;;;;;;31.87;26.73;101013.00;5076409;28;20431;-83
2022/08/23 10:01:26;;;;;;;16.67;10.60;;;;;;;31.83;26.85;100996.97;5076129;28;20625;-81
2022/08/23 10:04:39;;;;;;;14.20;9.00;;;;;;;31.83;26.73;100998.81;5061493;28;20064;-81
2022/08/23 10:07:24;;;;;;;16.73;8.95;;;;;;;31.68;26.67;101008.81;5059953;28;20044;-79
2022/08/23 10:10:17;;;;;;;18.90;9.25;;;;;;;31.69;26.61;101004.31;5076168;28;20048;-79
2022/08/23 10:12:45;;;;;;;15.05;9.75;;;;;;;31.83;26.36;101004.22;5076760;28;20052;-78
2022/08/23 10:15:15;;;;;;;15.90;9.15;;;;;;;31.92;26.62;101006.31;5059896;28;20087;-79
2022/08/23 10:18:07;;;;;;;16.77;9.10;;;;;;;31.96;26.58;101006.94;5076372;28;20044;-79
2022/08/23 10:20:48;;;;;;;12.85;8.55;;;;;;;31.76;26.50;100986.72;5076144;28;20052;-83
2022/08/23 10:23:21;;;;;;;13.60;8.95;;;;;;;31.87;26.92;100992.25;5094243;28;20147;-81
2022/08/23 10:25:57;;;;;;;13.55;8.68;;;;;;;32.04;26.31;100981.16;5059956;28;20048;-81
2022/08/23 10:31:36;;;;;;;16.13;8.45;;;;;;;32.32;26.28;100990.06;5075839;28;20281;-81
2022/08/23 10:34:37;;;;;;;10.98;7.65;;;;;;;32.31;25.94;100995.56;5094100;28;20055;-79
2022/08/23 10:37:13;;;;;;;11.20;8.02;;;;;;;32.26;26.08;100990.47;5076163;28;20558;-81
2022/08/23 10:40:24;;;;;;;9.70;8.30;;;;;;;32.16;26.28;100995.69;5098250;28;20156;-80
2022/08/23 10:43:00;;;;;;;11.20;8.43;;;;;;;32.16;26.39;100982.16;5079649;28;20052;-82
2022/08/23 10:45:32;;;;;;;10.25;8.00;;;;;;;32.06;25.81;100983.78;5094991;28;20058;-78
2022/08/23 10:48:27;;;;;;;12.20;8.35;;;;;;;32.08;26.10;100989.94;5075678;28;20052;-78
2022/08/23 10:50:59;;;;;;;10.73;8.30;;;;;;;32.16;26.21;100984.88;5094688;28;20139;-80
2022/08/23 10:53:36;;;;;;;12.00;8.35;;;;;;;32.19;26.45;100990.03;5076763;28;20138;-79
2022/08/23 10:56:06;;;;;;;15.77;8.80;;;;;;;32.22;26.00;100995.25;5075033;28;20048;-81
2022/08/23 10:58:50;;;;;;;10.77;7.45;;;;;;;32.14;25.96;100994.91;5075633;28;20052;-82
2022/08/23 11:01:22;;;;;;;10.55;7.85;;;;;;;32.08;26.05;100998.03;5075654;28;20051;-81
2022/08/23 11:04:14;;;;;;;10.38;6.78;;;;;;;31.94;26.02;100989.97;5075636;28;20519;-80
2022/08/23 11:07:00;;;;;;;11.25;7.05;;;;;;;32.05;25.95;100984.72;5074537;28;20044;-80
2022/08/23 11:09:49;;;;;;;10.45;7.10;;;;;;;32.21;25.72;100981.84;5076769;28;20059;-79
2022/08/23 11:12:30;;;;;;;13.77;7.20;;;;;;;32.28;25.66;100988.53;5059412;28;20109;-79
2022/08/23 11:15:27;;;;;;;11.25;7.55;;;;;;;32.08;25.60;100986.38;5075215;28;20557;-79
2022/08/23 11:17:59;;;;;;;;;;;;;;;31.83;25.87;100988.88;5048986;28;20052;-79
2022/08/23 11:20:49;;;;;;;11.80;7.03;;;;;;;31.96;25.65;100982.63;5075334;28;19924;-78
2022/08/23 11:23:57;;;;;;;8.10;6.35;;;;;;;31.99;25.35;100980.63;5075445;28;20051;-80
2022/08/23 11:26:35;;;;;;;9.50;6.43;;;;;;;32.08;25.15;100979.13;5075118;28;20048;-78
2022/08/23 11:29:05;;;;;;;8.18;6.63;;;;;;;32.14;25.24;100983.25;5074901;28;20048;-76
2022/08/23 11:31:41;;;;;;;10.02;5.82;;;;;;;32.02;24.92;100950.69;5093105;28;20492;-80
2022/08/23 11:34:18;;;;;;;10.25;6.18;;;;;;;32.31;24.90;100987.44;5074669;28;20055;-81
2022/08/23 11:37:20;;;;;;;10.38;6.68;;;;;;;32.35;25.11;100979.03;5075150;28;20473;-79
2022/08/23 11:40:00;;;;;;;10.80;6.22;;;;;;;32.47;24.94;100993.50;5058387;28;20052;-78
2022/08/23 11:42:36;;;;;;;11.88;6.32;;;;;;;32.47;24.49;100987.25;5093311;28;20101;-79
2022/08/23 11:45:29;;;;;;;11.77;6.18;;;;;;;32.42;24.74;100984.88;5074888;28;20051;-79
2022/08/23 11:48:37;;;;;;;8.13;6.32;;;;;;;32.44;24.78;100981.09;5075343;28;20113;-81
2022/08/23 11:51:24;;;;;;;11.40;5.85;;;;;;;32.61;24.33;100973.63;5093304;28;20059;-80
2022/08/23 11:53:51;;;;;;;10.65;6.30;;;;;;;32.70;24.58;100978.41;5075617;28;20058;-79
2022/08/23 11:56:53;;;;;;;7.63;6.32;;;;;;;32.70;24.45;100978.41;5095461;28;20099;-78
2022/08/23 12:00:00;;;;;;;8.52;6.10;;;;;;;32.64;24.38;100978.81;5094635;28;20051;-79
2022/08/23 12:02:37;;;;;;;10.27;6.28;;;;;;;32.69;24.36;100981.19;5080401;28;20054;-78
2022/08/23 12:05:19;;;;;;;7.63;6.28;;;;;;;32.71;24.46;100974.69;5096270;28;20048;-80
2022/08/23 12:07:51;;;;;;;9.05;6.57;;;;;;;32.79;24.28;100971.44;5086060;28;20056;-80
2022/08/23 12:10:44;;;;;;;12.50;6.05;;;;;;;32.79;23.72;100966.91;5093543;28;20052;-79
2022/08/23 12:13:16;;;;;;;10.23;6.05;;;;;;;32.58;24.17;100973.84;5092666;28;20070;-78
2022/08/23 12:16:05;;;;;;;8.60;5.97;;;;;;;32.63;24.22;100968.97;5092912;28;20072;-81
2022/08/23 12:18:48;;;;;;;8.73;6.00;;;;;;;32.63;24.07;100975.28;5093683;28;20145;-81
2022/08/23 12:21:17;;;;;;;12.20;5.90;;;;;;;32.42;24.25;100931.66;5096588;28;20086;-78
2022/08/23 12:23:48;;;;;;;10.52;6.45;;;;;;;32.73;24.53;100964.63;5096846;28;20105;-80
2022/08/23 12:26:25;;;;;;;10.73;6.10;;;;;;;32.84;24.25;100963.84;5096472;28;20052;-79
2022/08/23 12:29:08;;;;;;;;;;;;;;;32.66;24.50;100971.47;5097051;28;20043;-80
2022/08/23 12:31:48;;;;;;;9.40;5.95;;;;;;;32.77;23.60;100960.72;5098306;28;19924;-80
2022/08/23 12:34:44;;;;;;;8.98;5.85;;;;;;;32.84;24.18;100956.59;5080046;28;20052;-82
2022/08/23 12:37:27;;;;;;;13.30;6.38;;;;;;;32.81;23.64;100959.53;5078541;28;20059;-80
2022/08/23 12:40:01;;;;;;;11.10;5.75;;;;;;;32.81;23.23;100958.69;5098396;28;20048;-80
2022/08/23 12:42:38;;;;;;;9.25;6.63;;;;;;;32.69;23.46;100933.38;5096977;28;20089;-79
2022/08/23 12:45:17;;;;;;;10.80;6.18;;;;;;;32.91;23.30;100953.44;5096761;28;20154;-80
2022/08/23 12:47:53;;;;;;;;;;;;;;;32.70;24.17;100951.34;5097270;28;20448;-78
2022/08/23 12:50:26;;;;;;;13.20;6.60;;;;;;;32.78;23.60;100935.44;5096589;28;20426;-78
2022/08/23 12:53:09;;;;;;;13.80;7.30;;;;;;;32.90;23.84;100951.72;5078238;28;20113;-78
2022/08/23 12:55:44;;;;;;;10.10;6.70;;;;;;;32.99;23.64;100965.44;5096111;28;20117;-80
2022/08/23 12:58:14;;;;;;;7.22;6.07;;;;;;;32.91;23.15;100950.75;5096329;28;20491;-79
2022/08/23 13:00:53;;;;;;;9.68;6.78;;;;;;;32.73;23.21;100929.47;5096704;28;20078;-79
2022/08/23 13:03:43;;;;;;;8.15;6.18;;;;;;;32.79;23.15;100939.00;5078225;28;20064;-81
2022/08/23 13:06:13;;;;;;;8.75;6.07;;;;;;;32.85;23.05;100952.06;5096024;28;20238;-81
2022/08/23 13:08:46;;;;;;;8.45;6.03;;;;;;;32.67;23.10;100938.03;5096847;28;20056;-78
2022/08/23 13:11:19;;;;;;;10.70;6.38;;;;;;;32.70;23.37;100953.16;5096161;28;20044;-78
2022/08/23 13:13:47;;;;;;;8.55;5.85;;;;;;;32.72;23.19;100954.81;5097470;28;20081;-81
2022/08/23 13:16:26;;;;;;;8.60;6.32;;;;;;;32.67;23.44;100948.84;5080683;28;20121;-81
2022/08/23 13:18:55;;;;;;;8.80;6.18;;;;;;;32.72;23.08;100946.69;5098711;28;20127;-79
2022/08/23 13:21:21;;;;;;;11.77;6.20;;;;;;;32.74;23.39;100950.16;5098341;28;20078;-79
2022/08/23 13:23:53;;;;;;;8.77;6.05;;;;;;;32.76;22.99;100955.41;5098766;28;20054;-81
2022/08/23 13:26:41;;;;;;;6.20;5.60;;;;;;;32.70;23.21;100943.22;5097217;28;20512;-80
2022/08/23 13:29:14;;;;;;;10.45;6.07;;;;;;;32.64;23.45;100949.94;5097452;28;20044;-81
2022/08/23 13:31:58;;;;;;;9.40;6.00;;;;;;;32.68;23.59;100947.88;5098863;28;20096;-78
2022/08/23 13:34:44;;;;;;;10.18;5.90;;;;;;;32.67;23.59;100945.28;5098260;28;20477;-79
2022/08/23 13:37:31;;;;;;;9.02;5.82;;;;;;;32.58;23.60;100941.41;5095597;28;20060;-79
2022/08/23 13:40:04;;;;;;;8.55;5.95;;;;;;;32.65;23.65;100948.09;5095213;28;20051;-78
2022/08/23 13:42:48;;;;;;;7.28;5.90;;;;;;;32.60;23.58;100940.31;5092804;28;20580;-79
2022/08/23 13:45:25;;;;;;;9.30;5.90;;;;;;;32.54;23.53;100953.41;5086850;28;20139;-79
2022/08/23 13:48:01;;;;;;;11.45;5.88;;;;;;;32.54;23.62;100942.59;5076168;28;20056;-78
2022/08/23 13:50:33;;;;;;;8.77;6.07;;;;;;;32.45;23.63;100927.88;5086311;28;20056;-79
2022/08/23 13:53:01;;;;;;;10.32;5.85;;;;;;;32.46;23.49;100943.13;5080772;28;20098;-80
2022/08/23 13:55:50;;;;;;;9.02;5.70;;;;;;;32.22;23.83;100918.69;5086203;28;20054;-81
2022/08/23 13:58:30;;;;;;;10.32;6.05;;;;;;;32.33;23.86;100937.75;5086797;28;20056;-82
2022/08/23 14:00:59;;;;;;;8.98;6.05;;;;;;;32.35;23.74;100946.59;5084257;28;20467;-80
2022/08/23 14:03:28;;;;;;;12.30;6.13;;;;;;;32.31;23.88;100945.09;5098465;28;20064;-80
2022/08/23 14:05:55;;;;;;;10.45;6.32;;;;;;;32.29;24.08;100943.44;5092797;28;20044;-80
2022/08/23 14:08:22;;;;;;;10.15;5.97;;;;;;;32.06;23.87;100907.25;5096016;28;20441;-84
2022/08/23 14:10:49;;;;;;;10.80;5.82;;;;;;;32.15;24.04;100931.78;5095395;28;20048;-81
2022/08/23 14:13:18;;;;;;;10.45;6.20;;;;;;;32.07;24.24;100938.69;5092491;28;20045;-79
2022/08/23 14:15:45;;;;;;;8.55;6.20;;;;;;;32.00;24.32;100930.16;5088143;28;20082;-80
2022/08/23 14:18:33;;;;;;;11.98;6.55;;;;;;;32.01;24.48;100938.16;5081113;28;20048;-80
2022/08/23 14:21:02;;;;;;;13.93;6.45;;;;;;;31.92;24.33;100917.16;5083366;28;20503;-80
2022/08/23 14:23:29;;;;;;;15.55;6.03;;;;;;;32.00;24.16;100930.16;5094023;28;20507;-79
2022/08/23 14:25:57;;;;;;;9.90;6.03;;;;;;;31.95;24.30;100929.59;5093872;28;20055;-82
2022/08/23 14:28:28;;;;;;;9.35;5.97;;;;;;;31.86;24.54;100932.91;5094475;28;20105;-79
2022/08/23 14:30:56;;;;;;;8.48;5.95;;;;;;;31.85;24.48;100932.06;5094342;28;20048;-80
2022/08/23 14:33:24;;;;;;;7.80;5.70;;;;;;;31.78;24.38;100931.63;5096072;28;20526;-77
2022/08/23 14:35:51;;;;;;;11.05;5.88;;;;;;;31.75;24.48;100933.66;5081858;28;20056;-78
2022/08/23 14:38:18;;;;;;;6.75;5.80;;;;;;;31.71;24.59;100935.72;5078091;28;20423;-79
2022/08/23 14:41:07;;;;;;;11.75;6.13;;;;;;;31.53;25.00;100918.06;5093613;28;20142;-80
2022/08/23 14:43:35;;;;;;;11.95;6.35;;;;;;;31.56;25.20;100937.63;5091864;28;20055;-77
2022/08/23 14:46:03;;;;;;;10.98;6.70;;;;;;;31.49;24.93;100930.91;5075424;28;20071;-79
2022/08/23 14:48:31;;;;;;;14.87;6.97;;;;;;;31.45;24.71;100934.78;5093354;28;20060;-79
2022/08/23 14:50:58;;;;;;;12.00;6.97;;;;;;;31.36;25.10;100920.06;5089892;28;20305;-80
2022/08/23 14:53:29;;;;;;;15.30;8.63;;;;;;;31.36;25.09;100938.94;5067167;28;20083;-78
2022/08/23 14:55:57;;;;;;;12.25;8.48;;;;;;;31.31;25.43;100932.09;5085048;28;20056;-78
2022/08/23 14:58:49;;;;;;;17.42;10.45;;;;;;;31.23;25.75;100933.50;5029915;28;20131;-77
2022/08/23 15:01:17;;;;;;;19.48;13.48;;;;;;;31.16;26.11;100937.53;5072822;28;20083;-78
2022/08/23 15:03:48;;;;;;;32.80;22.95;;;;;;;31.10;26.14;100931.69;5038711;28;20163;-80
2022/08/23 15:06:17;;;;;;;46.72;31.63;;;;;;;30.97;26.40;100920.84;5075036;28;20048;-78
2022/08/23 15:08:44;;;;;;;48.40;33.67;;;;;;;30.92;26.82;100931.94;5093144;28;20047;-78
2022/08/23 15:11:14;;;;;;;51.47;35.75;;;;;;;30.79;27.01;100917.50;5058366;28;20078;-79
2022/08/23 15:14:02;;;;;;;51.38;36.55;;;;;;;30.76;27.14;100937.44;5092642;28;20044;-78
2022/08/23 15:16:29;;;;;;;58.88;41.08;;;;;;;30.70;27.24;100921.66;5092018;28;20476;-80
2022/08/23 15:18:57;;;;;;;65.90;46.53;;;;;;;30.66;27.40;100933.59;5091914;28;20058;-77
2022/08/23 15:21:25;;;;;;;62.83;46.55;;;;;;;30.50;27.46;100908.56;5092878;28;20056;-78
2022/08/23 15:23:52;;;;;;;68.22;52.25;;;;;;;30.37;27.23;100905.78;5092870;28;20078;-78
2022/08/23 15:26:23;;;;;;;71.30;52.15;;;;;;;30.49;27.52;100929.28;5093026;28;20048;-79
2022/08/23 15:28:51;;;;;;;74.53;55.70;;;;;;;30.37;27.95;100922.84;5092937;28;20075;-78
2022/08/23 15:31:19;;;;;;;80.28;57.85;;;;;;;30.36;27.87;100923.78;5092717;28;20629;-79
2022/08/23 15:33:46;;;;;;;84.22;60.03;;;;;;;30.23;27.85;100928.19;5092749;28;20075;-78
2022/08/23 15:36:15;;;;;;;88.15;61.35;;;;;;;30.24;27.95;100935.28;5092001;28;20371;-79
2022/08/23 15:38:46;;;;;;;88.93;62.00;;;;;;;30.11;28.13;100924.41;5092580;28;20048;-80
2022/08/23 15:41:16;;;;;;;85.00;63.15;;;;;;;30.07;28.46;100920.16;5092493;28;20056;-79
2022/08/23 15:43:44;;;;;;;86.45;63.53;;;;;;;30.06;28.48;100933.75;5092848;28;20521;-80
2022/08/23 15:46:16;;;;;;;83.05;64.32;;;;;;;29.98;28.37;100931.50;5074502;28;20088;-78
2022/08/23 15:48:55;;;;;;;89.38;64.75;;;;;;;29.92;28.40;100939.97;5092550;28;20052;-79
2022/08/23 15:51:23;;;;;;;88.47;64.10;;;;;;;29.86;28.89;100932.25;5092408;28;20513;-79
2022/08/23 15:53:50;;;;;;;87.72;63.97;;;;;;;29.79;28.64;100929.06;5092282;28;20143;-79
2022/08/23 15:56:21;;;;;;;91.45;66.10;;;;;;;29.70;28.90;100933.19;5092397;28;20055;-78
2022/08/23 15:58:48;;;;;;;86.78;65.07;;;;;;;29.58;29.12;100915.91;5093418;28;20052;-77